Time;durP1;ratioP1;P1;durP2;ratioP2;P2;SDS_P1;SDS_P2;PMS_P1;PMS_P2;Temp;Humidity;BMP_temperature;BMP_pressure;BME280_temperature;BME280_humidity;BME280_pressure;Samples;Min_cycle;Max_cycle;Signal;HPM_P1;HPM_P2
2022/03/22 00:01:50;;;;;;;6.83;2.20;;;26.00;99.90;;;;;;4913879;29;20661;-66
2022/03/22 00:04:18;;;;;;;7.00;1.37;;;26.30;99.90;;;;;;4914594;29;20183;-65
2022/03/22 00:06:46;;;;;;;4.47;1.30;;;27.00;99.90;;;;;;4914631;29;20178;-65
2022/03/22 00:09:14;;;;;;;4.27;1.87;;;26.40;99.90;;;;;;4914430;29;20193;-66
2022/03/22 00:11:41;;;;;;;7.87;1.47;;;26.80;99.90;;;;;;4914728;29;20241;-66
2022/03/22 00:14:09;;;;;;;7.60;1.73;;;27.00;99.90;;;;;;4915026;29;20233;-65
2022/03/22 00:16:38;;;;;;;5.30;1.30;;;26.30;99.90;;;;;;4915766;29;20240;-66
2022/03/22 00:19:06;;;;;;;5.07;1.60;;;26.50;99.90;;;;;;4915898;29;20241;-66
2022/03/22 00:21:35;;;;;;;8.30;1.97;;;26.70;99.90;;;;;;4915992;29;20261;-66
2022/03/22 00:24:04;;;;;;;7.10;2.00;;;27.00;99.90;;;;;;4915623;29;20553;-66
2022/03/22 00:26:32;;;;;;;6.90;2.33;;;27.00;99.90;;;;;;4915754;29;20241;-66
2022/03/22 00:29:00;;;;;;;5.77;1.70;;;27.30;99.90;;;;;;4915588;29;20189;-66
2022/03/22 00:31:28;;;;;;;6.80;1.37;;;27.30;99.90;;;;;;4915387;29;20181;-65
2022/03/22 00:33:55;;;;;;;11.53;1.97;;;27.40;99.90;;;;;;4914605;29;20763;-66
2022/03/22 00:36:23;;;;;;;7.47;1.50;;;27.70;99.90;;;;;;4915770;29;20867;-66
2022/03/22 00:38:51;;;;;;;6.83;1.63;;;27.90;99.90;;;;;;4915693;29;20233;-66
2022/03/22 00:41:20;;;;;;;6.57;1.77;;;28.10;99.90;;;;;;4915718;29;20180;-65
2022/03/22 00:43:48;;;;;;;8.10;2.07;;;28.10;99.90;;;;;;4915426;29;20213;-65
2022/03/22 00:46:16;;;;;;;8.97;1.70;;;27.90;99.90;;;;;;4908690;29;20228;-66
2022/03/22 00:48:47;;;;;;;10.17;1.93;;;28.20;99.90;;;;;;4914412;29;20216;-66
2022/03/22 00:51:15;;;;;;;7.40;1.57;;;28.40;99.90;;;;;;4915699;29;20188;-66
2022/03/22 00:53:45;;;;;;;7.53;1.70;;;28.90;99.90;;;;;;4915274;29;20243;-66
2022/03/22 00:56:13;;;;;;;6.50;1.70;;;28.70;99.90;;;;;;4915594;29;20254;-65
2022/03/22 00:58:40;;;;;;;5.40;1.70;;;29.00;99.90;;;;;;4915428;29;20181;-65
2022/03/22 01:01:08;;;;;;;4.47;1.55;;;28.90;99.90;;;;;;4915152;29;20216;-65
2022/03/22 01:03:36;;;;;;;7.03;2.10;;;29.00;99.90;;;;;;4915643;29;20272;-64
2022/03/22 01:06:04;;;;;;;4.20;1.83;;;28.80;99.90;;;;;;4915308;29;20264;-64
2022/03/22 01:08:32;;;;;;;3.83;1.77;;;29.20;99.90;;;;;;4915424;29;20598;-65
2022/03/22 01:11:00;;;;;;;9.30;2.30;;;28.50;99.90;;;;;;4913889;29;20180;-65
2022/03/22 01:13:28;;;;;;;4.20;1.80;;;28.90;99.90;;;;;;4918827;29;20185;-65
2022/03/22 01:15:57;;;;;;;6.87;2.50;;;28.90;99.90;;;;;;4917767;29;20189;-65
2022/03/22 01:18:25;;;;;;;6.73;1.97;;;29.10;99.90;;;;;;4918938;29;20204;-66
2022/03/22 01:20:52;;;;;;;10.38;2.20;;;28.70;99.90;;;;;;4918370;29;20193;-66
2022/03/22 01:23:21;;;;;;;8.27;2.17;;;29.80;99.90;;;;;;4918726;29;20264;-66
2022/03/22 01:25:49;;;;;;;3.15;1.80;;;30.10;99.90;;;;;;4918211;29;20771;-66
2022/03/22 01:28:17;;;;;;;8.13;2.47;;;30.00;99.90;;;;;;4918638;29;20269;-65
2022/03/22 01:30:45;;;;;;;8.90;2.03;;;30.40;99.90;;;;;;4918574;29;20185;-66
2022/03/22 01:33:14;;;;;;;11.65;2.30;;;30.60;99.90;;;;;;4918685;29;20228;-66
2022/03/22 01:35:42;;;;;;;7.55;2.38;;;30.40;99.90;;;;;;4918243;29;20200;-65
2022/03/22 01:38:10;;;;;;;7.82;1.77;;;30.20;99.90;;;;;;4918494;29;20189;-66
2022/03/22 01:40:38;;;;;;;9.73;2.50;;;30.30;99.90;;;;;;4918546;29;20293;-66
2022/03/22 01:43:06;;;;;;;5.47;2.05;;;30.30;99.90;;;;;;4918550;29;20200;-66
2022/03/22 01:45:34;;;;;;;7.18;2.10;;;30.30;99.90;;;;;;4918567;29;20715;-66
2022/03/22 01:48:04;;;;;;;3.55;2.00;;;30.70;99.90;;;;;;4918878;29;20674;-66
2022/03/22 01:50:32;;;;;;;5.75;2.05;;;31.20;99.90;;;;;;4918296;29;20201;-66
2022/03/22 01:53:01;;;;;;;5.00;2.35;;;30.60;99.90;;;;;;4917997;29;20178;-65
2022/03/22 01:55:29;;;;;;;8.45;2.38;;;30.20;99.90;;;;;;4918347;29;20674;-66
2022/03/22 01:57:57;;;;;;;6.18;2.17;;;30.50;99.90;;;;;;4918333;29;20190;-65
2022/03/22 02:00:25;;;;;;;6.18;2.20;;;31.10;99.90;;;;;;4918263;29;20192;-66
2022/03/22 02:05:51;;;;;;;6.78;1.98;;;31.50;99.90;;;;;;4918327;29;20264;-66
2022/03/22 02:08:21;;;;;;;6.45;2.33;;;31.70;99.90;;;;;;4918337;29;20181;-66
2022/03/22 02:10:49;;;;;;;8.60;2.45;;;31.60;99.90;;;;;;4917607;29;20275;-66
2022/03/22 02:13:18;;;;;;;7.93;2.40;;;31.90;99.90;;;;;;4918011;29;20181;-67
2022/03/22 02:15:49;;;;;;;10.07;2.70;;;32.00;99.90;;;;;;4918008;29;20568;-67
2022/03/22 02:18:18;;;;;;;6.90;2.75;;;32.10;99.90;;;;;;4918029;29;20185;-67
2022/03/22 02:20:47;;;;;;;8.43;2.28;;;32.00;99.90;;;;;;4917577;29;20920;-65
2022/03/22 02:23:49;;;;;;;7.60;2.28;;;32.40;99.90;;;;;;4917808;29;20197;-67
2022/03/22 02:26:17;;;;;;;10.85;2.45;;;31.80;99.90;;;;;;4898929;29;20237;-67
2022/03/22 02:28:45;;;;;;;8.70;2.60;;;32.10;99.90;;;;;;4898960;29;20193;-67
2022/03/22 02:31:13;;;;;;;5.55;2.20;;;33.20;99.90;;;;;;4912364;29;20217;-67
2022/03/22 02:33:43;;;;;;;8.43;2.35;;;33.30;99.90;;;;;;4917687;29;20210;-67
2022/03/22 02:36:11;;;;;;;9.40;2.38;;;32.70;99.90;;;;;;4917641;29;20336;-66
2022/03/22 02:38:39;;;;;;;9.27;2.47;;;32.20;99.90;;;;;;4917253;29;20563;-68
2022/03/22 02:41:07;;;;;;;6.40;2.08;;;32.60;99.90;;;;;;4917583;29;20188;-67
2022/03/22 02:43:35;;;;;;;8.57;2.40;;;32.30;99.90;;;;;;4917557;29;20547;-67
2022/03/22 02:46:03;;;;;;;6.32;2.35;;;32.90;99.90;;;;;;4917274;29;20236;-67
2022/03/22 02:48:30;;;;;;;6.78;2.45;;;32.10;99.90;;;;;;4917233;29;20187;-67
2022/03/22 02:50:58;;;;;;;6.95;2.30;;;32.70;99.90;;;;;;4917431;29;20174;-67
2022/03/22 02:53:26;;;;;;;9.02;2.42;;;33.10;99.90;;;;;;4916635;29;20189;-67
2022/03/22 02:55:54;;;;;;;4.57;1.92;;;33.30;99.90;;;;;;4917489;29;20192;-67
2022/03/22 02:58:21;;;;;;;8.60;2.50;;;33.90;99.90;;;;;;4917172;29;20669;-68
2022/03/22 03:00:49;;;;;;;8.88;2.47;;;33.90;99.90;;;;;;4916966;29;20196;-67
2022/03/22 03:03:21;;;;;;;7.00;2.05;;;33.20;99.90;;;;;;4915961;29;20194;-67
2022/03/22 03:05:49;;;;;;;4.75;2.20;;;33.20;99.90;;;;;;4917174;29;20269;-67
2022/03/22 03:08:18;;;;;;;5.38;2.20;;;33.30;99.90;;;;;;4915674;29;20182;-69
2022/03/22 03:10:46;;;;;;;4.57;2.30;;;32.70;99.90;;;;;;4916600;29;20200;-68
2022/03/22 03:13:14;;;;;;;3.95;2.10;;;33.10;99.90;;;;;;4916170;29;20173;-68
2022/03/22 03:15:42;;;;;;;9.27;2.15;;;33.50;99.90;;;;;;4915201;29;20668;-69
2022/03/22 03:18:10;;;;;;;5.50;2.00;;;33.30;99.90;;;;;;4915515;29;20279;-68
2022/03/22 03:20:37;;;;;;;4.35;2.10;;;33.50;99.90;;;;;;4916743;29;20181;-69
2022/03/22 03:23:05;;;;;;;7.63;2.47;;;33.90;99.90;;;;;;4916772;29;20201;-68
2022/03/22 03:25:35;;;;;;;9.60;2.70;;;34.10;99.90;;;;;;4916318;29;20622;-68
2022/03/22 03:28:03;;;;;;;5.43;2.08;;;34.30;99.90;;;;;;4914019;29;20221;-66
2022/03/22 03:30:31;;;;;;;4.60;2.28;;;34.00;99.90;;;;;;4916622;29;20182;-66
2022/03/22 03:32:59;;;;;;;5.20;2.30;;;33.90;99.90;;;;;;4914785;29;20217;-66
2022/03/22 03:35:27;;;;;;;7.88;2.05;;;33.90;99.90;;;;;;4914949;29;20268;-66
2022/03/22 03:37:55;;;;;;;6.93;2.20;;;33.60;99.90;;;;;;4916580;29;20192;-68
2022/03/22 03:41:53;;;;;;;3.70;2.22;;;33.50;99.90;;;;;;4916525;29;20185;-68
2022/03/22 03:43:10;;;;;;;4.50;2.22;;;33.40;99.90;;;;;;4916179;29;20547;-68
2022/03/22 03:48:23;;;;;;;3.28;2.25;;;33.30;99.90;;;;;;4915811;29;20209;-66
2022/03/22 03:50:50;;;;;;;6.95;2.42;;;33.60;99.90;;;;;;4916331;29;20313;-67
2022/03/22 03:53:18;;;;;;;12.55;2.83;;;33.10;99.90;;;;;;4915983;29;20174;-67
2022/03/22 03:55:46;;;;;;;4.78;2.53;;;33.00;99.90;;;;;;4915834;29;20185;-66
2022/03/22 03:58:13;;;;;;;10.27;2.53;;;32.70;99.90;;;;;;4916009;29;20186;-67
2022/03/22 04:00:41;;;;;;;2.83;2.20;;;33.10;99.90;;;;;;4915642;29;20643;-67
2022/03/22 04:03:09;;;;;;;4.43;2.10;;;32.70;99.90;;;;;;4915845;29;20838;-67
2022/03/22 04:05:37;;;;;;;4.15;2.15;;;32.60;99.90;;;;;;4915518;29;20189;-67
2022/03/22 04:08:04;;;;;;;11.75;2.35;;;32.70;99.90;;;;;;4915884;29;20193;-68
2022/03/22 04:10:34;;;;;;;7.60;2.17;;;32.90;99.90;;;;;;4915921;29;20173;-68
2022/03/22 04:13:02;;;;;;;5.13;2.30;;;32.90;99.90;;;;;;4916077;29;20556;-68
2022/03/22 04:15:31;;;;;;;9.30;3.22;;;32.80;99.90;;;;;;4914561;29;20973;-68
2022/03/22 04:17:59;;;;;;;8.48;2.88;;;33.10;99.90;;;;;;4915600;29;20189;-68
2022/03/22 04:20:30;;;;;;;5.95;2.65;;;33.60;99.90;;;;;;4915717;29;20284;-68
2022/03/22 04:22:57;;;;;;;9.60;2.50;;;33.80;99.90;;;;;;4915647;29;20750;-68
2022/03/22 04:25:25;;;;;;;7.35;2.90;;;34.00;99.90;;;;;;4915911;29;20178;-68
2022/03/22 04:33:25;;;;;;;5.65;2.70;;;32.90;99.90;;;;;;4915716;29;20185;-69
2022/03/22 04:35:53;;;;;;;7.95;2.78;;;33.40;99.90;;;;;;4915808;29;20192;-68
2022/03/22 04:38:21;;;;;;;4.25;2.75;;;33.90;99.90;;;;;;4915825;29;20229;-68
2022/03/22 04:40:48;;;;;;;7.38;2.53;;;34.00;99.90;;;;;;4915360;29;20249;-68
2022/03/22 04:43:16;;;;;;;7.15;2.85;;;34.00;99.90;;;;;;4915367;29;20194;-68
2022/03/22 04:45:44;;;;;;;5.38;2.55;;;33.90;99.80;;;;;;4915690;29;20177;-69
2022/03/22 04:48:12;;;;;;;3.90;2.42;;;33.80;99.90;;;;;;4918672;29;20628;-68
2022/03/22 04:50:39;;;;;;;5.38;2.67;;;33.50;99.90;;;;;;4919408;29;20188;-68
2022/03/22 04:58:38;;;;;;;4.00;2.78;;;33.20;99.90;;;;;;4919300;29;20188;-69
2022/03/22 05:01:06;;;;;;;7.72;2.88;;;33.50;99.90;;;;;;4919070;29;20221;-68
2022/03/22 05:03:34;;;;;;;5.18;2.63;;;33.60;99.60;;;;;;4919379;29;20256;-68
2022/03/22 05:08:47;;;;;;;8.02;2.60;;;33.40;99.90;;;;;;4919220;29;20200;-69
2022/03/22 05:11:15;;;;;;;8.20;2.60;;;33.30;98.00;;;;;;4919183;29;20199;-68
2022/03/22 05:13:43;;;;;;;3.90;2.55;;;33.60;99.90;;;;;;4918818;29;20205;-68
2022/03/22 05:16:10;;;;;;;5.97;2.88;;;33.30;97.00;;;;;;4919031;29;20600;-69
2022/03/22 05:18:38;;;;;;;4.45;2.53;;;33.30;96.30;;;;;;4919060;29;20187;-68
2022/03/22 05:21:06;;;;;;;4.38;2.45;;;33.20;97.80;;;;;;4918588;29;20193;-68
2022/03/22 05:23:37;;;;;;;10.32;2.90;;;33.00;95.60;;;;;;4919098;29;20173;-68
2022/03/22 05:26:05;;;;;;;7.80;2.72;;;33.00;96.00;;;;;;4918018;29;20604;-68
2022/03/22 05:28:33;;;;;;;4.05;2.63;;;32.90;95.50;;;;;;4918735;29;20215;-67
2022/03/22 05:31:01;;;;;;;4.22;2.22;;;32.90;95.20;;;;;;4918839;29;20181;-67
2022/03/22 05:33:29;;;;;;;3.92;2.38;;;32.90;98.50;;;;;;4918615;29;20182;-67
2022/03/22 05:35:57;;;;;;;7.82;2.63;;;32.70;99.60;;;;;;4918543;29;20215;-67
2022/03/22 05:38:26;;;;;;;5.88;2.95;;;32.50;99.90;;;;;;4918618;29;20624;-67
2022/03/22 05:40:54;;;;;;;4.50;2.55;;;32.30;99.90;;;;;;4918620;29;20177;-67
2022/03/22 05:43:22;;;;;;;9.30;3.10;;;32.30;99.90;;;;;;4918734;29;20235;-67
2022/03/22 05:45:50;;;;;;;6.40;2.78;;;32.30;99.90;;;;;;4918483;29;20219;-67
2022/03/22 05:48:19;;;;;;;4.45;3.10;;;32.20;99.90;;;;;;4918346;29;20196;-67
2022/03/22 05:50:47;;;;;;;4.25;2.78;;;31.70;99.90;;;;;;4918338;29;20182;-67
2022/03/22 05:53:15;;;;;;;4.55;2.65;;;31.70;99.90;;;;;;4918275;29;20223;-67
2022/03/22 05:55:43;;;;;;;6.30;3.03;;;31.60;99.90;;;;;;4918479;29;20217;-66
2022/03/22 05:58:11;;;;;;;6.60;3.00;;;31.60;99.90;;;;;;4917187;29;20181;-67
2022/03/22 06:00:39;;;;;;;6.82;3.08;;;31.70;99.90;;;;;;4917997;29;20185;-67
2022/03/22 06:03:07;;;;;;;5.00;2.38;;;31.70;99.90;;;;;;4918338;29;20528;-67
2022/03/22 06:05:34;;;;;;;4.28;2.55;;;31.70;99.90;;;;;;4918351;29;20188;-67
2022/03/22 06:08:04;;;;;;;6.40;3.10;;;31.70;99.90;;;;;;4918053;29;20188;-67
2022/03/22 06:10:32;;;;;;;4.35;3.05;;;31.70;99.90;;;;;;4917991;29;20248;-68
2022/03/22 06:13:00;;;;;;;4.25;2.70;;;31.80;99.90;;;;;;4918006;29;20189;-67
2022/03/22 06:15:30;;;;;;;4.50;2.45;;;31.90;99.90;;;;;;4917791;29;20249;-67
2022/03/22 06:18:00;;;;;;;5.30;2.78;;;31.90;99.90;;;;;;4917958;29;20185;-67
2022/03/22 06:20:34;;;;;;;6.47;2.90;;;31.90;99.90;;;;;;4917728;29;20201;-67
2022/03/22 06:23:04;;;;;;;4.63;2.77;;;31.70;99.90;;;;;;4915984;29;20232;-67
2022/03/22 06:25:32;;;;;;;4.45;2.85;;;31.80;99.90;;;;;;4917352;29;20567;-66
2022/03/22 06:28:00;;;;;;;6.03;2.85;;;32.10;99.90;;;;;;4917397;29;20471;-67
2022/03/22 06:30:28;;;;;;;7.80;2.20;;;32.20;99.90;;;;;;4917194;29;20182;-67
2022/03/22 06:32:58;;;;;;;6.88;2.15;;;31.90;99.90;;;;;;4914884;29;20228;-67
2022/03/22 06:35:28;;;;;;;4.73;1.93;;;31.80;99.90;;;;;;4917217;29;20213;-68
2022/03/22 06:37:59;;;;;;;8.43;2.30;;;31.30;99.90;;;;;;4915749;29;20178;-67
2022/03/22 06:40:29;;;;;;;4.47;2.20;;;31.20;99.90;;;;;;4915619;29;20201;-67
2022/03/22 06:42:58;;;;;;;6.97;2.10;;;30.90;99.90;;;;;;4914829;29;20177;-67
2022/03/22 06:45:25;;;;;;;8.17;2.10;;;30.90;99.90;;;;;;4916804;29;20193;-67
2022/03/22 06:47:54;;;;;;;5.00;2.23;;;31.10;99.90;;;;;;4916750;29;20270;-67
2022/03/22 06:50:24;;;;;;;5.77;2.33;;;31.10;99.90;;;;;;4917071;29;20185;-67
2022/03/22 06:52:53;;;;;;;3.77;2.07;;;31.00;99.90;;;;;;4915269;29;20193;-67
2022/03/22 06:55:22;;;;;;;6.23;2.07;;;31.00;99.90;;;;;;4917134;29;20556;-67
2022/03/22 06:57:53;;;;;;;8.93;1.90;;;31.30;99.90;;;;;;4917291;29;20191;-67
2022/03/22 07:00:22;;;;;;;5.70;2.37;;;30.90;99.90;;;;;;4916917;29;20284;-67
2022/03/22 07:02:50;;;;;;;4.00;2.50;;;30.90;99.90;;;;;;4917017;29;20229;-67
2022/03/22 07:05:18;;;;;;;3.87;2.00;;;31.00;99.90;;;;;;4916641;29;20192;-68
2022/03/22 07:07:46;;;;;;;6.93;2.42;;;30.80;99.90;;;;;;4917183;29;20178;-68
2022/03/22 07:10:17;;;;;;;7.40;2.30;;;30.10;99.90;;;;;;4916660;29;20563;-68
2022/03/22 07:12:59;;;;;;;5.30;2.27;;;30.00;99.90;;;;;;4916616;29;20189;-68
2022/03/22 07:15:31;;;;;;;5.73;2.20;;;30.10;99.90;;;;;;4916799;29;20225;-68
2022/03/22 07:18:03;;;;;;;5.47;2.43;;;29.80;99.90;;;;;;4916894;29;20260;-68
2022/03/22 07:20:31;;;;;;;7.40;2.40;;;29.60;99.90;;;;;;4917038;29;20215;-68
2022/03/22 07:23:00;;;;;;;8.77;2.53;;;29.50;99.90;;;;;;4917213;29;20717;-68
2022/03/22 07:25:28;;;;;;;5.70;2.00;;;29.40;99.90;;;;;;4917051;29;20562;-69
2022/03/22 07:27:56;;;;;;;2.37;1.93;;;29.30;99.90;;;;;;4917006;29;20185;-69
2022/03/22 07:30:23;;;;;;;4.43;2.63;;;29.40;99.90;;;;;;4916995;29;20185;-70
2022/03/22 07:32:51;;;;;;;7.80;2.67;;;29.20;99.90;;;;;;4916609;29;20208;-69
2022/03/22 07:35:23;;;;;;;7.17;2.20;;;29.10;99.90;;;;;;4916297;29;20265;-69
2022/03/22 07:37:52;;;;;;;9.87;2.83;;;29.00;99.90;;;;;;4916873;29;20750;-69
2022/03/22 07:40:20;;;;;;;7.03;2.33;;;28.90;99.90;;;;;;4917049;29;20583;-69
2022/03/22 07:42:49;;;;;;;8.97;3.07;;;28.70;99.90;;;;;;4916870;29;20556;-69
2022/03/22 07:45:20;;;;;;;7.10;3.13;;;28.60;99.90;;;;;;4915648;29;20205;-69
2022/03/22 07:47:48;;;;;;;6.43;3.03;;;28.40;99.90;;;;;;4917202;29;20186;-69
2022/03/22 07:53:05;;;;;;;7.07;2.73;;;28.20;99.90;;;;;;4916636;29;20239;-70
2022/03/22 07:55:51;;;;;;;6.37;2.87;;;28.10;99.90;;;;;;4916494;29;20221;-69
2022/03/22 07:58:19;;;;;;;6.57;2.83;;;28.10;99.90;;;;;;4916525;29;20189;-70
2022/03/22 08:00:50;;;;;;;9.57;3.47;;;28.00;99.90;;;;;;4916259;29;20199;-70
2022/03/22 08:03:18;;;;;;;5.57;2.90;;;27.80;99.90;;;;;;4916883;29;20170;-69
2022/03/22 08:05:49;;;;;;;8.27;3.07;;;27.70;99.90;;;;;;4916375;29;20185;-69
2022/03/22 08:08:17;;;;;;;6.47;2.70;;;27.60;99.90;;;;;;4916508;29;20178;-69
2022/03/22 08:10:48;;;;;;;9.40;3.13;;;27.50;99.90;;;;;;4915382;29;20197;-70
2022/03/22 08:13:16;;;;;;;12.20;4.03;;;27.40;99.90;;;;;;4916526;29;20173;-69
2022/03/22 08:15:45;;;;;;;9.47;3.63;;;27.30;99.90;;;;;;4916328;29;20294;-69
2022/03/22 08:18:13;;;;;;;9.10;3.37;;;27.20;99.90;;;;;;4916462;29;20252;-68
2022/03/22 08:20:40;;;;;;;8.47;3.37;;;27.10;99.90;;;;;;4915649;29;20204;-69
2022/03/22 08:23:09;;;;;;;12.90;3.67;;;27.00;99.90;;;;;;4916025;29;20181;-69
2022/03/22 08:25:39;;;;;;;5.80;3.00;;;26.90;99.90;;;;;;4915445;29;20188;-69
2022/03/22 08:28:09;;;;;;;9.13;3.40;;;26.80;99.90;;;;;;4915920;29;20706;-68
2022/03/22 08:30:38;;;;;;;8.80;3.37;;;26.70;99.90;;;;;;4915646;29;20686;-68
2022/03/22 08:33:07;;;;;;;9.87;3.63;;;26.60;99.90;;;;;;4915817;29;20177;-68
2022/03/22 08:35:36;;;;;;;9.10;4.17;;;26.60;99.90;;;;;;4915990;29;20221;-69
2022/03/22 08:38:05;;;;;;;10.93;3.67;;;26.40;99.90;;;;;;4915615;29;20253;-68
2022/03/22 08:40:34;;;;;;;8.10;3.27;;;26.40;99.90;;;;;;4915572;29;20292;-70
2022/03/22 08:43:05;;;;;;;7.23;3.00;;;26.30;99.90;;;;;;4916437;29;20562;-69
2022/03/22 08:45:34;;;;;;;9.70;3.53;;;26.20;99.90;;;;;;4921415;29;20193;-69
2022/03/22 08:48:09;;;;;;;11.73;4.13;;;26.30;99.90;;;;;;4926428;29;20205;-68
2022/03/22 08:50:42;;;;;;;9.60;3.37;;;26.20;99.90;;;;;;4919580;29;20207;-69
2022/03/22 08:53:11;;;;;;;8.47;3.37;;;26.00;99.90;;;;;;4922147;29;20261;-69
2022/03/22 08:55:39;;;;;;;9.50;3.30;;;26.00;99.90;;;;;;4923034;29;20791;-69
2022/03/22 08:58:08;;;;;;;7.73;3.57;;;26.00;99.90;;;;;;4922650;29;20185;-68
2022/03/22 09:00:36;;;;;;;10.10;3.73;;;25.80;99.90;;;;;;4924915;29;20256;-69
2022/03/22 09:03:06;;;;;;;9.93;3.57;;;25.80;99.90;;;;;;4916147;29;20225;-69
2022/03/22 09:08:20;;;;;;;7.93;3.43;;;25.70;99.90;;;;;;4915630;29;20200;-68
2022/03/22 09:10:50;;;;;;;8.57;3.30;;;25.60;99.90;;;;;;4915534;29;20679;-69
2022/03/22 09:13:18;;;;;;;10.87;3.47;;;25.60;99.90;;;;;;4915242;29;20641;-69
2022/03/22 09:15:48;;;;;;;8.80;3.23;;;25.50;99.90;;;;;;4915490;29;20216;-69
2022/03/22 09:18:16;;;;;;;7.10;3.33;;;25.40;99.90;;;;;;4915472;29;20215;-68
2022/03/22 09:20:45;;;;;;;10.97;4.47;;;25.30;99.90;;;;;;4896544;29;20190;-68
2022/03/22 09:23:14;;;;;;;10.27;3.63;;;25.20;99.90;;;;;;4910916;29;20268;-69
2022/03/22 09:25:43;;;;;;;8.43;3.67;;;25.20;99.90;;;;;;4915603;29;20182;-68
2022/03/22 09:28:12;;;;;;;7.60;3.70;;;25.10;99.90;;;;;;4914474;29;20229;-68
2022/03/22 09:30:41;;;;;;;8.33;4.07;;;25.00;99.90;;;;;;4914787;29;20261;-68
2022/03/22 09:33:11;;;;;;;6.40;3.37;;;24.90;99.90;;;;;;4915592;29;20200;-68
2022/03/22 09:35:39;;;;;;;8.60;3.47;;;24.80;99.90;;;;;;4918796;29;20678;-68
2022/03/22 09:38:07;;;;;;;8.67;3.27;;;24.70;99.90;;;;;;4919003;29;20180;-68
2022/03/22 09:40:35;;;;;;;10.87;3.63;;;24.60;99.90;;;;;;4918315;29;20199;-67
2022/03/22 09:43:02;;;;;;;9.60;3.47;;;24.60;99.90;;;;;;4918578;29;20185;-68
2022/03/22 09:45:32;;;;;;;8.50;3.23;;;24.50;99.90;;;;;;4918764;29;20178;-68
2022/03/22 09:48:04;;;;;;;5.60;3.47;;;24.40;99.90;;;;;;4918570;29;20189;-68
2022/03/22 09:53:18;;;;;;;7.13;3.47;;;24.30;99.90;;;;;;4918326;29;20200;-67
2022/03/22 09:55:46;;;;;;;12.13;4.07;;;24.20;99.90;;;;;;4918550;29;20232;-67
2022/03/22 09:58:14;;;;;;;8.50;3.80;;;24.20;99.90;;;;;;4918153;29;20185;-68
2022/03/22 10:00:42;;;;;;;9.73;4.07;;;24.20;99.90;;;;;;4917828;29;20190;-68
2022/03/22 10:03:21;;;;;;;14.67;4.30;;;24.10;99.90;;;;;;4918523;29;20674;-68
2022/03/22 10:06:01;;;;;;;8.30;3.40;;;24.10;99.90;;;;;;4918619;29;20238;-68
2022/03/22 10:08:29;;;;;;;6.50;3.33;;;24.00;99.90;;;;;;4918253;29;20183;-68
2022/03/22 10:11:01;;;;;;;9.53;4.30;;;23.90;99.90;;;;;;4916715;29;20192;-68
2022/03/22 10:13:29;;;;;;;9.87;3.73;;;23.80;99.90;;;;;;4899113;29;20186;-68
2022/03/22 10:16:08;;;;;;;9.70;4.00;;;23.80;99.90;;;;;;4899523;29;20197;-67
2022/03/22 10:18:36;;;;;;;10.53;4.03;;;23.80;99.90;;;;;;4914692;29;20200;-69
2022/03/22 10:21:05;;;;;;;10.73;3.47;;;23.60;99.90;;;;;;4917611;29;20204;-70
2022/03/22 10:23:34;;;;;;;11.00;4.00;;;23.60;99.90;;;;;;4901080;29;20195;-70
2022/03/22 10:26:09;;;;;;;8.33;3.80;;;23.50;99.90;;;;;;4917828;29;20185;-69
2022/03/22 10:28:48;;;;;;;16.47;4.30;;;23.50;99.90;;;;;;4917619;29;20561;-69
2022/03/22 10:31:16;;;;;;;8.53;3.73;;;23.40;99.90;;;;;;4918520;29;20686;-70
2022/03/22 10:33:54;;;;;;;14.43;4.67;;;23.30;99.90;;;;;;4917778;29;20189;-70
2022/03/22 10:36:24;;;;;;;13.00;4.43;;;23.30;99.90;;;;;;4919000;29;20272;-69
2022/03/22 10:39:02;;;;;;;9.10;4.33;;;23.30;99.90;;;;;;4917796;29;20557;-69
2022/03/22 10:41:37;;;;;;;12.17;4.97;;;23.20;99.90;;;;;;4918828;29;20200;-70
2022/03/22 10:44:13;;;;;;;8.07;3.80;;;23.20;99.90;;;;;;4917729;29;20689;-70
2022/03/22 10:46:45;;;;;;;8.03;4.17;;;23.20;99.90;;;;;;4918241;29;20198;-70
2022/03/22 10:49:16;;;;;;;7.27;4.00;;;23.10;99.90;;;;;;4917857;29;20189;-70
2022/03/22 10:51:48;;;;;;;10.77;4.40;;;23.10;99.90;;;;;;4918209;29;20177;-71
2022/03/22 10:54:21;;;;;;;8.73;4.13;;;23.00;99.90;;;;;;4918006;29;20315;-70
2022/03/22 10:56:55;;;;;;;12.50;4.23;;;23.00;99.90;;;;;;4918084;29;20209;-70
2022/03/22 10:59:25;;;;;;;6.30;4.40;;;22.90;99.90;;;;;;4918438;29;20185;-71
2022/03/22 11:01:55;;;;;;;10.53;4.47;;;22.90;99.90;;;;;;4918095;29;20841;-71
2022/03/22 11:04:24;;;;;;;9.90;5.00;;;22.90;99.90;;;;;;4918632;29;20620;-71
2022/03/22 11:06:53;;;;;;;9.00;4.33;;;22.90;99.90;;;;;;4918253;29;20260;-71
2022/03/22 11:09:21;;;;;;;12.60;4.93;;;22.80;99.90;;;;;;4918016;29;20280;-72
2022/03/22 11:11:50;;;;;;;8.73;4.97;;;22.80;99.90;;;;;;4917936;29;20521;-71
2022/03/22 11:14:20;;;;;;;11.23;5.30;;;22.80;99.90;;;;;;4918314;29;20209;-71
2022/03/22 11:16:49;;;;;;;5.90;3.90;;;22.70;99.90;;;;;;4917963;29;20196;-70
2022/03/22 11:19:17;;;;;;;7.93;4.60;;;22.70;99.90;;;;;;4916337;29;20541;-71
2022/03/22 11:21:48;;;;;;;8.20;4.47;;;22.60;99.90;;;;;;4916723;29;20584;-71
2022/03/22 11:24:22;;;;;;;9.17;4.93;;;22.60;99.90;;;;;;4918017;29;20189;-71
2022/03/22 11:26:55;;;;;;;14.90;4.53;;;22.60;99.90;;;;;;4917974;29;20185;-71
2022/03/22 11:29:27;;;;;;;8.77;4.57;;;22.70;99.90;;;;;;4917708;29;20545;-70
2022/03/22 11:34:42;;;;;;;14.27;4.97;;;22.90;99.90;;;;;;4918172;29;20835;-70
2022/03/22 11:37:10;;;;;;;15.63;4.90;;;23.00;99.90;;;;;;4917904;29;20177;-71
2022/03/22 11:42:25;;;;;;;9.70;4.30;;;23.00;99.90;;;;;;4917523;29;20671;-70
2022/03/22 11:45:07;;;;;;;9.27;4.57;;;23.00;99.90;;;;;;4917552;29;20185;-70
2022/03/22 11:47:43;;;;;;;9.17;4.10;;;23.00;99.90;;;;;;4917395;29;20181;-71
2022/03/22 11:50:18;;;;;;;14.43;4.37;;;23.00;99.90;;;;;;4916926;29;20197;-70
2022/03/22 11:52:48;;;;;;;12.23;4.50;;;23.20;99.90;;;;;;4917260;29;20192;-71
2022/03/22 11:55:22;;;;;;;12.63;4.87;;;23.30;99.90;;;;;;4917141;29;20221;-71
2022/03/22 11:58:13;;;;;;;10.67;4.57;;;23.40;99.90;;;;;;4916936;29;20273;-70
2022/03/22 12:00:55;;;;;;;8.20;4.30;;;23.50;99.90;;;;;;4900442;29;20541;-71
2022/03/22 12:03:30;;;;;;;10.63;4.83;;;23.50;99.90;;;;;;4917439;29;20182;-71
2022/03/22 12:06:08;;;;;;;6.30;3.70;;;23.50;99.90;;;;;;4917759;29;20177;-69
2022/03/22 12:08:36;;;;;;;12.87;4.30;;;23.50;99.90;;;;;;4916930;29;20195;-71
2022/03/22 12:11:04;;;;;;;11.93;4.00;;;23.60;99.90;;;;;;4917073;29;20188;-68
2022/03/22 12:13:42;;;;;;;8.73;4.07;;;23.50;99.90;;;;;;4914563;29;20232;-71
2022/03/22 12:16:10;;;;;;;9.90;4.20;;;23.50;99.90;;;;;;4916722;29;20231;-72
2022/03/22 12:18:40;;;;;;;9.97;3.87;;;23.60;99.90;;;;;;4915989;29;20189;-71
2022/03/22 12:21:21;;;;;;;7.13;3.77;;;23.50;99.90;;;;;;4917111;29;20224;-71
2022/03/22 12:23:49;;;;;;;9.27;3.90;;;23.50;99.90;;;;;;4916718;29;20673;-71
2022/03/22 12:26:17;;;;;;;12.80;4.37;;;23.60;99.90;;;;;;4912571;29;20197;-70
2022/03/22 12:28:49;;;;;;;8.73;3.50;;;23.50;99.90;;;;;;4916720;29;20215;-70
2022/03/22 12:31:21;;;;;;;12.83;4.37;;;23.50;99.90;;;;;;4916893;29;20196;-69
2022/03/22 12:33:56;;;;;;;10.53;4.03;;;23.40;99.90;;;;;;4916614;29;20271;-70
2022/03/22 12:36:25;;;;;;;10.03;3.73;;;23.40;99.90;;;;;;4917340;29;20181;-69
2022/03/22 12:38:52;;;;;;;11.03;4.20;;;23.40;99.90;;;;;;4915374;29;20181;-70
2022/03/22 12:41:20;;;;;;;7.77;3.90;;;23.30;99.90;;;;;;4916861;29;20222;-69
2022/03/22 12:43:48;;;;;;;17.50;3.70;;;23.30;99.90;;;;;;4915702;29;20190;-70
2022/03/22 12:46:16;;;;;;;19.87;4.30;;;23.30;99.90;;;;;;4917144;29;20179;-70
2022/03/22 12:48:44;;;;;;;12.20;3.53;;;23.30;99.90;;;;;;4916296;29;20211;-71
2022/03/22 12:51:12;;;;;;;7.17;3.50;;;23.20;99.90;;;;;;4915819;29;20196;-71
2022/03/22 12:53:39;;;;;;;9.63;3.87;;;23.20;99.90;;;;;;4916499;29;20193;-69
2022/03/22 12:56:21;;;;;;;7.20;3.77;;;23.20;99.90;;;;;;4916707;29;20193;-71
2022/03/22 12:58:50;;;;;;;8.17;3.40;;;23.20;99.90;;;;;;4916451;29;20212;-70
2022/03/22 13:01:18;;;;;;;10.33;3.50;;;23.10;99.90;;;;;;4916243;29;20217;-71
2022/03/22 13:03:50;;;;;;;9.23;3.70;;;23.10;99.90;;;;;;4916611;29;20213;-70
2022/03/22 13:06:21;;;;;;;11.07;3.83;;;23.10;99.90;;;;;;4916818;29;20196;-70
2022/03/22 13:11:46;;;;;;;5.50;3.63;;;23.10;99.90;;;;;;4917736;29;20197;-70
2022/03/22 13:17:20;;;;;;;7.60;3.57;;;22.90;99.90;;;;;;4899385;29;20673;-71
2022/03/22 13:19:48;;;;;;;13.40;3.60;;;22.90;99.90;;;;;;4898600;29;20218;-71
2022/03/22 13:22:26;;;;;;;8.57;3.83;;;23.00;99.90;;;;;;4899162;29;20312;-71
2022/03/22 13:25:06;;;;;;;7.87;3.70;;;22.90;99.90;;;;;;4920061;29;20537;-70
2022/03/22 13:27:34;;;;;;;7.47;3.30;;;22.80;99.90;;;;;;4920118;29;20212;-70
2022/03/22 13:30:03;;;;;;;8.03;3.43;;;22.80;99.90;;;;;;4919529;29;20188;-71
2022/03/22 13:32:33;;;;;;;9.47;3.50;;;22.80;99.90;;;;;;4920075;29;20177;-69
2022/03/22 13:35:03;;;;;;;6.47;3.50;;;22.70;99.90;;;;;;4919758;29;20219;-71
2022/03/22 13:37:49;;;;;;;8.17;3.60;;;22.80;99.90;;;;;;4918834;29;20593;-71